Dunn, Louisiana
Current Conditions -  °F | °C
As of 8:55 AM on Wednesday 26 Nov 2014 (Local Time) from KBQP Reporting Station
Clear Clear  
Wind Chill: 45°   Ceiling: Unl
Heat Index: 49°   Visibility: 10mi
Dew Point: 35°   Wind: 9mph
Humidity: 58%   Direction: 210°SSW
Pressure: 30.16"   Gusts: NA
Location:  32.4445°N, 91.5289°W
Report Text: KBQP 261455Z AUTO 21008KT 10SM CLR 10/02 A3016 RMK AO2 T00950016
Loading
Personal Weather Stations






























Interactive Weather Map New forecast layout! Learn more

10-Day Weather Forecast

Advertisements
Track Severe Weather on mobile